Terminal Aerodrome Forecast
Issued by NWS

Home | Current Version | Previous Version | Text Only | Print | Product List | Glossary On
Versions: 1 2 3 4 5 6 7 8 9 10 11 12 13 14 15 16 17 18
000
FTUS42 KILM 041723
TAFCRE
TAF
KCRE 041723Z 0418/0518 22014KT P6SM VCSH SCT050
      TEMPO 0421/0424 4SM TSRA BKN035CB
     FM050000 22010KT P6SM VCSH FEW050 BKN250=

USA.gov is the U.S. government's official web portal to all federal, state and local government web resources and services.